Time;durP1;ratioP1;P1;durP2;ratioP2;P2;SDS_P1;SDS_P2;PMS_P1;PMS_P2;Temp;Humidity;BMP_temperature;BMP_pressure;BME280_temperature;BME280_humidity;BME280_pressure;Samples;Min_cycle;Max_cycle;Signal;HPM_P1;HPM_P2
2023/06/08 00:00:50;;;;;;;15.45;6.70;;;;;;;14.60;100.00;101757.41;5075768;28;20048;-51
2023/06/08 00:03:18;;;;;;;16.95;7.20;;;;;;;14.48;100.00;101758.22;5073117;28;20102;-49
2023/06/08 00:05:48;;;;;;;20.88;7.28;;;;;;;14.57;100.00;101754.94;5073788;28;20483;-51
2023/06/08 00:08:17;;;;;;;15.90;7.18;;;;;;;14.51;100.00;101752.75;5074473;28;20058;-51
2023/06/08 00:10:46;;;;;;;17.70;8.07;;;;;;;14.46;100.00;101747.72;5072433;28;20059;-53
2023/06/08 00:13:17;;;;;;;16.23;7.22;;;;;;;14.47;100.00;101746.78;5074723;28;20090;-53
2023/06/08 00:15:45;;;;;;;18.08;7.50;;;;;;;14.35;100.00;101748.47;5075927;28;20048;-52
2023/06/08 00:18:13;;;;;;;18.75;7.78;;;;;;;14.24;100.00;101750.13;5076411;28;20041;-53
2023/06/08 00:20:42;;;;;;;16.27;7.88;;;;;;;14.23;100.00;101745.78;5057544;28;20033;-51
2023/06/08 00:23:10;;;;;;;15.35;6.93;;;;;;;14.28;100.00;101749.00;5075996;28;20053;-52
2023/06/08 00:25:38;;;;;;;17.67;7.53;;;;;;;14.15;100.00;101741.88;5073809;28;20491;-53
2023/06/08 00:28:07;;;;;;;19.83;8.10;;;;;;;14.14;100.00;101744.63;5071755;28;20060;-49
2023/06/08 00:30:36;;;;;;;14.90;7.72;;;;;;;14.13;100.00;101750.84;5075426;28;20083;-60
2023/06/08 00:33:04;;;;;;;17.60;7.85;;;;;;;14.02;100.00;101751.56;5075262;28;20056;-52
2023/06/08 00:35:33;;;;;;;18.83;8.38;;;;;;;13.87;100.00;101753.41;5075680;28;20075;-53
2023/06/08 00:38:01;;;;;;;16.52;7.80;;;;;;;13.81;100.00;101744.06;5074946;28;20044;-52
2023/06/08 00:40:29;;;;;;;17.73;7.25;;;;;;;13.90;100.00;101747.91;5076245;28;20048;-61
2023/06/08 00:42:57;;;;;;;22.30;8.60;;;;;;;13.93;100.00;101739.75;5056894;28;20053;-61
2023/06/08 00:45:28;;;;;;;17.83;7.97;;;;;;;13.75;100.00;101747.09;5071166;28;20060;-52
2023/06/08 00:48:04;;;;;;;15.40;8.18;;;;;;;13.74;100.00;101744.56;5072886;28;20135;-49
2023/06/08 00:50:33;;;;;;;18.02;7.65;;;;;;;13.83;100.00;101743.97;5071770;28;20076;-52
2023/06/08 00:53:01;;;;;;;18.58;7.30;;;;;;;13.80;100.00;101739.72;5073024;28;20071;-53
2023/06/08 00:55:33;;;;;;;15.05;7.50;;;;;;;13.83;100.00;101733.38;5071536;28;20041;-49
2023/06/08 00:58:02;;;;;;;17.35;8.00;;;;;;;13.74;100.00;101733.97;5071037;28;20060;-51
2023/06/08 01:00:32;;;;;;;19.20;8.63;;;;;;;13.60;100.00;101729.59;5073672;28;20051;-48
2023/06/08 01:03:00;;;;;;;18.40;8.15;;;;;;;13.67;100.00;101737.03;5072269;28;20063;-49
2023/06/08 01:05:33;;;;;;;15.50;7.28;;;;;;;13.59;100.00;101728.72;5071456;28;20687;-59
2023/06/08 01:08:11;;;;;;;19.05;7.82;;;;;;;13.65;100.00;101730.16;5072065;28;20053;-60
2023/06/08 01:10:44;;;;;;;20.65;8.45;;;;;;;13.47;100.00;101726.84;5074027;28;20559;-59
2023/06/08 01:13:17;;;;;;;16.00;7.60;;;;;;;13.38;100.00;101735.38;5073107;28;20135;-60
2023/06/08 01:15:49;;;;;;;13.50;7.38;;;;;;;13.31;100.00;101735.72;5073973;28;20044;-51
2023/06/08 01:18:22;;;;;;;17.50;8.65;;;;;;;13.10;100.00;101735.28;5056838;28;20095;-53
2023/06/08 01:21:07;;;;;;;17.08;7.95;;;;;;;13.18;100.00;101740.06;5072963;28;20496;-59
2023/06/08 01:23:51;;;;;;;18.63;8.45;;;;;;;13.17;100.00;101738.38;5072438;28;20056;-59
2023/06/08 01:26:26;;;;;;;16.85;8.48;;;;;;;13.25;100.00;101736.13;5070521;28;20127;-60
2023/06/08 01:28:55;;;;;;;18.13;8.20;;;;;;;13.23;100.00;101737.16;5072851;28;20056;-60
2023/06/08 01:31:23;;;;;;;15.20;7.80;;;;;;;13.13;100.00;101735.09;5071716;28;20769;-60
2023/06/08 01:33:52;;;;;;;18.52;7.82;;;;;;;13.17;100.00;101731.31;5071047;28;20048;-61
2023/06/08 01:36:27;;;;;;;15.52;7.60;;;;;;;13.16;100.00;101726.13;5071253;28;20124;-48
2023/06/08 01:39:07;;;;;;;16.95;7.80;;;;;;;13.20;100.00;101732.91;5071341;28;20056;-50
2023/06/08 01:41:40;;;;;;;15.93;8.13;;;;;;;13.19;100.00;101736.50;5053666;28;20051;-48
2023/06/08 01:44:13;;;;;;;20.60;8.65;;;;;;;13.07;100.00;101735.44;5073026;28;20106;-49
2023/06/08 01:46:49;;;;;;;16.00;8.00;;;;;;;13.15;100.00;101738.47;5074225;28;20403;-60
2023/06/08 01:49:19;;;;;;;17.90;8.25;;;;;;;13.06;100.00;101732.91;5056308;28;20044;-60
2023/06/08 01:51:47;;;;;;;16.98;8.38;;;;;;;13.01;100.00;101728.75;5056430;28;20151;-59
2023/06/08 01:54:17;;;;;;;17.75;8.07;;;;;;;12.95;100.00;101728.28;5074639;28;20049;-59
2023/06/08 01:56:45;;;;;;;18.10;8.40;;;;;;;12.97;100.00;101729.06;5074186;28;20051;-60
2023/06/08 01:59:13;;;;;;;20.83;8.63;;;;;;;12.92;100.00;101723.19;5074128;28;20599;-60
2023/06/08 02:01:41;;;;;;;19.13;8.25;;;;;;;12.87;100.00;101725.25;5074082;28;20387;-60
2023/06/08 02:04:09;;;;;;;18.42;8.70;;;;;;;12.84;100.00;101732.44;5073902;28;20055;-60
2023/06/08 02:06:38;;;;;;;18.92;8.48;;;;;;;12.89;100.00;101723.41;5073805;28;20055;-60
2023/06/08 02:09:06;;;;;;;18.02;8.73;;;;;;;12.84;100.00;101721.00;5074611;28;20144;-60
2023/06/08 02:11:35;;;;;;;19.38;8.68;;;;;;;12.87;100.00;101719.97;5073698;28;20045;-49
2023/06/08 02:14:05;;;;;;;19.27;8.38;;;;;;;12.75;100.00;101719.78;5070721;28;20044;-59
2023/06/08 02:16:38;;;;;;;19.35;9.43;;;;;;;12.63;100.00;101724.00;5070255;28;20048;-49
2023/06/08 02:19:06;;;;;;;20.08;9.13;;;;;;;12.50;100.00;101717.75;5071547;28;20048;-49
2023/06/08 02:21:34;;;;;;;18.33;8.93;;;;;;;12.56;100.00;101712.13;5070940;28;20040;-48
2023/06/08 02:24:03;;;;;;;20.88;9.43;;;;;;;12.58;100.00;101719.97;5069965;28;20048;-53
2023/06/08 02:26:31;;;;;;;21.30;10.23;;;;;;;12.60;100.00;101711.00;5071106;28;20076;-52
2023/06/08 02:29:00;;;;;;;16.45;8.63;;;;;;;12.57;100.00;101715.59;5072869;28;20059;-51
2023/06/08 02:31:29;;;;;;;16.45;8.63;;;;;;;12.52;100.00;101707.97;5070487;28;20047;-60
2023/06/08 02:33:57;;;;;;;17.17;9.45;;;;;;;12.55;100.00;101709.59;5070958;28;20048;-49
2023/06/08 02:36:31;;;;;;;17.20;8.82;;;;;;;12.39;100.00;101704.38;5072405;28;20048;-53
2023/06/08 02:39:08;;;;;;;19.42;9.30;;;;;;;12.40;100.00;101703.44;5146994;27;1335655;-48
2023/06/08 02:41:36;;;;;;;15.73;9.43;;;;;;;12.47;100.00;101710.03;5167588;27;20050;-49
2023/06/08 02:44:05;;;;;;;14.98;8.40;;;;;;;12.48;100.00;101709.94;5169627;27;20499;-49
2023/06/08 02:46:33;;;;;;;18.42;9.48;;;;;;;12.43;100.00;101706.72;5170320;27;20094;-53
2023/06/08 02:49:01;;;;;;;19.33;8.38;;;;;;;12.45;100.00;101704.84;5168996;27;20085;-50
2023/06/08 02:51:30;;;;;;;16.83;8.88;;;;;;;12.43;100.00;101711.16;5170755;27;20442;-51
2023/06/08 02:53:59;;;;;;;16.40;9.27;;;;;;;12.32;100.00;101706.53;5150908;27;20077;-52
2023/06/08 02:56:29;;;;;;;18.40;8.95;;;;;;;12.33;100.00;101700.31;5168833;27;20117;-48
2023/06/08 02:58:57;;;;;;;19.15;9.02;;;;;;;12.48;100.00;101709.09;5170152;27;20046;-48
2023/06/08 03:01:30;;;;;;;18.63;9.20;;;;;;;12.48;100.00;101709.09;5169072;27;20042;-52
2023/06/08 03:03:59;;;;;;;20.85;9.43;;;;;;;12.38;100.00;101707.94;5171482;27;20129;-48
2023/06/08 03:06:33;;;;;;;17.77;9.30;;;;;;;12.39;100.00;101712.28;5168369;27;20436;-50
2023/06/08 03:09:01;;;;;;;16.40;8.60;;;;;;;12.44;100.00;101710.22;5168885;27;20047;-50
2023/06/08 03:11:33;;;;;;;20.60;9.40;;;;;;;12.36;100.00;101700.13;5153155;27;20429;-51
2023/06/08 03:14:03;;;;;;;14.57;9.25;;;;;;;12.36;100.00;101705.41;5171692;27;20121;-49
2023/06/08 03:16:31;;;;;;;17.50;8.73;;;;;;;12.35;100.00;101703.69;5168891;27;20548;-53
2023/06/08 03:19:00;;;;;;;16.45;9.13;;;;;;;12.33;100.00;101693.25;5149606;27;20087;-50
2023/06/08 03:21:28;;;;;;;21.05;9.25;;;;;;;12.23;100.00;101693.88;5170688;27;20055;-52
2023/06/08 03:23:57;;;;;;;21.23;9.68;;;;;;;12.13;100.00;101689.16;5168328;27;20356;-52
2023/06/08 03:26:25;;;;;;;22.33;10.55;;;;;;;12.09;100.00;101692.91;5167267;27;20038;-52
2023/06/08 03:28:54;;;;;;;19.95;10.18;;;;;;;12.00;100.00;101699.53;5170545;27;20038;-49
2023/06/08 03:31:24;;;;;;;21.35;10.27;;;;;;;12.09;100.00;101700.81;5171446;27;20404;-50
2023/06/08 03:33:54;;;;;;;21.05;10.27;;;;;;;12.11;100.00;101700.72;5171355;27;20039;-49
2023/06/08 03:36:33;;;;;;;20.77;10.32;;;;;;;12.06;100.00;101697.50;5171154;27;20042;-48
2023/06/08 03:39:02;;;;;;;19.73;11.07;;;;;;;11.95;100.00;101700.75;5168678;27;20052;-49
2023/06/08 03:41:30;;;;;;;21.60;11.75;;;;;;;11.89;100.00;101698.41;5166342;27;20549;-48
2023/06/08 03:44:00;;;;;;;20.55;10.98;;;;;;;11.88;100.00;101691.47;5152083;27;20143;-48
2023/06/08 03:46:28;;;;;;;19.20;10.30;;;;;;;11.97;100.00;101689.19;5167778;27;20046;-48
2023/06/08 03:48:56;;;;;;;21.85;10.80;;;;;;;11.98;100.00;101690.91;5164078;27;20064;-52
2023/06/08 03:51:25;;;;;;;20.98;10.48;;;;;;;11.91;100.00;101689.50;5157256;27;20405;-50
2023/06/08 03:53:53;;;;;;;19.83;11.77;;;;;;;11.90;100.00;101695.72;5157377;27;20047;-48
2023/06/08 03:56:21;;;;;;;17.88;11.10;;;;;;;11.92;100.00;101691.19;5153050;27;20050;-51
2023/06/08 03:58:51;;;;;;;19.98;10.25;;;;;;;11.95;100.00;101688.41;5153957;27;20712;-58
2023/06/08 04:01:22;;;;;;;16.75;10.60;;;;;;;11.95;100.00;101687.56;5157037;27;20062;-59
2023/06/08 04:03:51;;;;;;;21.75;10.95;;;;;;;12.00;100.00;101682.88;5156779;27;20050;-60
2023/06/08 04:06:20;;;;;;;20.85;11.32;;;;;;;11.86;100.00;101682.78;5156803;27;20115;-59
2023/06/08 04:08:48;;;;;;;22.50;11.32;;;;;;;11.84;100.00;101680.25;5156597;27;20050;-59
2023/06/08 04:11:16;;;;;;;18.20;11.68;;;;;;;11.83;100.00;101683.81;5156661;27;20050;-59
2023/06/08 04:13:44;;;;;;;20.52;11.60;;;;;;;11.86;100.00;101686.25;5138119;27;20057;-59
2023/06/08 04:16:13;;;;;;;19.67;10.65;;;;;;;11.95;100.00;101683.13;5156411;27;20038;-59
2023/06/08 04:18:42;;;;;;;20.02;11.32;;;;;;;11.90;100.00;101685.19;5156324;27;20493;-59
2023/06/08 04:21:10;;;;;;;24.55;12.30;;;;;;;11.92;100.00;101685.09;5156020;27;20046;-60
2023/06/08 04:23:38;;;;;;;20.15;11.45;;;;;;;11.98;100.00;101682.97;5154109;27;20043;-60
2023/06/08 04:26:07;;;;;;;20.20;10.77;;;;;;;12.00;100.00;101681.09;5153453;27;20055;-59
2023/06/08 04:28:36;;;;;;;21.13;11.35;;;;;;;12.04;100.00;101684.41;5152644;27;20166;-59
2023/06/08 04:31:05;;;;;;;19.33;10.95;;;;;;;12.16;100.00;101682.81;5155057;27;20405;-59
2023/06/08 04:33:33;;;;;;;18.95;11.30;;;;;;;12.13;100.00;101683.00;5156281;27;20034;-59
2023/06/08 04:36:03;;;;;;;20.23;11.57;;;;;;;12.06;100.00;101681.69;5137581;27;20057;-60
2023/06/08 04:38:31;;;;;;;17.08;11.45;;;;;;;12.02;100.00;101675.72;5156004;27;20118;-60
2023/06/08 04:41:01;;;;;;;18.98;10.82;;;;;;;12.11;100.00;101677.84;5153680;27;20050;-59
2023/06/08 04:43:31;;;;;;;19.17;11.05;;;;;;;12.14;100.00;101671.53;5152361;27;20485;-59
2023/06/08 04:45:59;;;;;;;19.27;10.98;;;;;;;12.04;100.00;101675.63;5154902;27;20066;-59
2023/06/08 04:48:28;;;;;;;19.45;11.05;;;;;;;12.21;100.00;101677.31;5155966;27;20371;-60
2023/06/08 04:51:01;;;;;;;25.52;11.73;;;;;;;12.19;100.00;101672.13;5155818;27;20373;-60
2023/06/08 04:53:33;;;;;;;19.88;11.63;;;;;;;12.28;100.00;101681.25;5156008;27;20051;-59
2023/06/08 04:56:02;;;;;;;;;;;;;;;12.33;100.00;101684.50;5156454;27;20046;-58
2023/06/08 04:58:31;;;;;;;18.60;11.32;;;;;;;12.34;100.00;101681.75;5155457;27;19923;-60
2023/06/08 05:01:00;;;;;;;21.67;11.13;;;;;;;12.42;100.00;101683.06;5154499;27;20054;-59
2023/06/08 05:03:28;;;;;;;19.35;11.52;;;;;;;12.40;100.00;101672.63;5152206;27;20509;-59
2023/06/08 05:05:57;;;;;;;21.95;12.65;;;;;;;12.50;100.00;101679.06;5152443;27;20836;-59
2023/06/08 05:08:25;;;;;;;16.55;10.77;;;;;;;12.47;100.00;101678.38;5154177;27;20401;-59
2023/06/08 05:10:54;;;;;;;22.83;11.43;;;;;;;12.48;100.00;101674.81;5155216;27;20051;-59
2023/06/08 05:13:22;;;;;;;21.00;12.10;;;;;;;12.61;100.00;101682.81;5155517;27;20057;-60
2023/06/08 05:15:51;;;;;;;20.17;11.30;;;;;;;12.73;100.00;101678.59;5155665;27;20051;-60
2023/06/08 05:18:19;;;;;;;20.25;12.30;;;;;;;12.72;100.00;101682.19;5153930;27;20051;-59
2023/06/08 05:20:50;;;;;;;20.42;11.50;;;;;;;12.72;100.00;101682.19;5152608;27;20053;-59
2023/06/08 05:23:18;;;;;;;19.40;11.55;;;;;;;12.72;100.00;101685.69;5154265;27;20054;-59
2023/06/08 05:25:46;;;;;;;22.77;11.95;;;;;;;12.81;100.00;101685.09;5155440;27;20557;-60
2023/06/08 05:28:16;;;;;;;18.35;12.02;;;;;;;12.91;100.00;101684.53;5155427;27;20065;-60
2023/06/08 05:30:44;;;;;;;19.55;11.95;;;;;;;13.05;100.00;101681.03;5155274;27;20511;-60
2023/06/08 05:33:12;;;;;;;21.63;11.90;;;;;;;13.08;100.00;101672.94;5155377;27;20072;-60
2023/06/08 05:35:40;;;;;;;19.50;12.30;;;;;;;13.16;100.00;101674.16;5153014;27;20297;-61
2023/06/08 05:38:08;;;;;;;19.20;10.82;;;;;;;13.23;100.00;101679.06;5151802;27;20051;-59
2023/06/08 05:40:40;;;;;;;21.52;10.73;;;;;;;13.27;100.00;101675.28;5154791;27;20041;-59
2023/06/08 05:43:08;;;;;;;18.60;11.00;;;;;;;13.41;100.00;101672.63;5154830;27;20042;-59
2023/06/08 05:45:37;;;;;;;16.73;11.18;;;;;;;13.48;100.00;101670.44;5136224;27;20382;-59
2023/06/08 05:48:08;;;;;;;18.58;10.65;;;;;;;13.61;100.00;101670.50;5154535;27;20049;-64
2023/06/08 05:50:36;;;;;;;18.08;10.63;;;;;;;13.72;100.00;101664.50;5154493;27;20053;-61
2023/06/08 05:53:04;;;;;;;17.90;10.93;;;;;;;13.77;100.00;101665.91;5152643;27;20549;-60
2023/06/08 05:55:33;;;;;;;19.88;11.55;;;;;;;13.89;100.00;101661.59;5154004;27;20057;-60
2023/06/08 05:58:01;;;;;;;22.55;10.68;;;;;;;13.97;100.00;101664.56;5155004;27;20095;-60
2023/06/08 06:00:29;;;;;;;19.75;11.23;;;;;;;14.08;100.00;101670.94;5153598;27;20043;-61
2023/06/08 06:02:59;;;;;;;20.20;11.00;;;;;;;14.15;100.00;101666.94;5152264;27;20059;-61
2023/06/08 06:05:31;;;;;;;16.23;10.57;;;;;;;14.30;100.00;101671.22;5153112;27;20042;-61
2023/06/08 06:07:59;;;;;;;17.63;10.55;;;;;;;14.37;100.00;101672.47;5154609;27;20369;-61
2023/06/08 06:10:27;;;;;;;20.17;10.35;;;;;;;14.48;100.00;101662.94;5135960;27;20057;-50
2023/06/08 06:12:55;;;;;;;17.38;10.70;;;;;;;14.58;100.00;101661.38;5154201;27;20416;-49
2023/06/08 06:15:24;;;;;;;18.17;10.63;;;;;;;14.67;100.00;101665.19;5133222;27;20053;-52
2023/06/08 06:17:52;;;;;;;20.05;10.73;;;;;;;14.82;100.00;101665.91;5151394;27;20054;-53
2023/06/08 06:20:23;;;;;;;18.35;10.02;;;;;;;14.92;100.00;101664.34;5150885;27;20035;-51
2023/06/08 06:22:51;;;;;;;16.90;10.10;;;;;;;14.98;100.00;101666.56;5154428;27;20047;-50
2023/06/08 06:25:21;;;;;;;17.00;10.45;;;;;;;15.12;100.00;101660.28;5152455;27;20218;-49
2023/06/08 06:27:49;;;;;;;19.10;10.15;;;;;;;15.26;100.00;101664.59;5150037;27;20509;-62
2023/06/08 06:30:20;;;;;;;17.88;9.93;;;;;;;15.36;100.00;101665.59;5154024;27;20406;-61
2023/06/08 06:32:48;;;;;;;20.05;10.18;;;;;;;15.51;100.00;101666.28;5136221;27;20051;-61
2023/06/08 06:35:16;;;;;;;14.93;8.68;;;;;;;15.65;100.00;101670.59;5154147;27;20505;-52
2023/06/08 06:37:46;;;;;;;17.33;10.35;;;;;;;15.85;100.00;101676.25;5153568;27;20058;-60
2023/06/08 06:40:14;;;;;;;17.98;9.50;;;;;;;15.89;100.00;101673.25;5154033;27;20069;-61
2023/06/08 06:42:42;;;;;;;18.98;9.05;;;;;;;15.91;100.00;101673.16;5154856;27;20557;-62
2023/06/08 06:45:11;;;;;;;13.95;8.73;;;;;;;15.97;100.00;101679.81;5154398;27;20489;-61
2023/06/08 06:47:39;;;;;;;18.55;9.32;;;;;;;15.88;100.00;101681.31;5154182;27;20049;-61
2023/06/08 06:50:08;;;;;;;16.17;9.32;;;;;;;15.83;100.00;101679.00;5153757;27;20145;-61
2023/06/08 06:52:36;;;;;;;15.77;9.60;;;;;;;15.81;100.00;101680.09;5134091;27;20485;-61
2023/06/08 06:55:06;;;;;;;14.95;8.90;;;;;;;15.94;100.00;101686.19;5151398;27;20068;-62
2023/06/08 06:57:36;;;;;;;19.55;9.02;;;;;;;15.90;100.00;101682.06;5131733;27;20520;-61
2023/06/08 07:00:08;;;;;;;16.92;10.20;;;;;;;15.99;100.00;101681.38;5151225;27;20103;-63
2023/06/08 07:02:37;;;;;;;18.25;9.98;;;;;;;16.05;100.00;101678.25;5133732;27;20058;-61
2023/06/08 07:05:08;;;;;;;15.88;8.82;;;;;;;16.16;100.00;101685.41;5133901;27;20153;-53
2023/06/08 07:07:36;;;;;;;15.88;8.27;;;;;;;16.26;100.00;101690.84;5151051;27;20047;-52
2023/06/08 07:10:06;;;;;;;16.65;8.90;;;;;;;16.27;100.00;101692.56;5153695;27;20035;-54
2023/06/08 07:12:35;;;;;;;18.10;9.75;;;;;;;16.32;100.00;101694.84;5153918;27;20070;-53
2023/06/08 07:15:04;;;;;;;18.73;10.10;;;;;;;16.24;100.00;101687.50;5153963;27;20039;-53
2023/06/08 07:17:32;;;;;;;16.75;9.65;;;;;;;16.30;100.00;101688.81;5152242;27;20407;-49
2023/06/08 07:20:00;;;;;;;15.90;9.30;;;;;;;16.48;100.00;101684.75;5150693;27;20464;-61
2023/06/08 07:22:29;;;;;;;16.05;10.02;;;;;;;16.63;100.00;101682.72;5151399;27;20093;-62
2023/06/08 07:25:18;;;;;;;15.07;9.40;;;;;;;16.58;100.00;101689.34;5153864;27;20477;-61
2023/06/08 07:28:08;;;;;;;14.18;8.85;;;;;;;16.59;100.00;101680.44;5154060;27;20042;-61
2023/06/08 07:30:38;;;;;;;13.57;8.45;;;;;;;16.49;100.00;101683.78;5155281;27;20449;-60
2023/06/08 07:33:07;;;;;;;15.25;8.57;;;;;;;16.45;100.00;101686.81;5157367;27;20070;-61
2023/06/08 07:35:35;;;;;;;14.50;8.52;;;;;;;16.55;100.00;101695.72;5157887;27;20042;-61
2023/06/08 07:38:03;;;;;;;15.52;9.25;;;;;;;16.53;100.00;101689.72;5155829;27;20066;-61
2023/06/08 07:40:32;;;;;;;13.55;9.20;;;;;;;16.62;100.00;101696.09;5135253;27;20146;-62
2023/06/08 07:43:00;;;;;;;15.82;9.45;;;;;;;16.59;100.00;101697.19;5156071;27;20386;-62
2023/06/08 07:45:29;;;;;;;15.02;9.02;;;;;;;16.73;100.00;101689.00;5155264;27;20053;-61
2023/06/08 07:47:57;;;;;;;15.40;9.15;;;;;;;16.79;100.00;101687.69;5136938;27;20095;-61
2023/06/08 07:50:25;;;;;;;16.40;8.73;;;;;;;16.97;100.00;101684.56;5137354;27;20050;-62
2023/06/08 07:52:53;;;;;;;14.68;8.32;;;;;;;16.90;100.00;101684.22;5154585;27;20053;-62
2023/06/08 07:55:22;;;;;;;17.85;8.65;;;;;;;16.95;100.00;101689.19;5155823;27;20043;-61
2023/06/08 07:57:51;;;;;;;16.38;9.25;;;;;;;16.93;100.00;101685.78;5153188;27;20038;-61
2023/06/08 08:00:21;;;;;;;13.98;9.23;;;;;;;16.95;100.00;101682.03;5154321;27;20041;-60
2023/06/08 08:02:49;;;;;;;16.05;8.52;;;;;;;17.07;100.00;101677.59;5154943;27;20046;-61
2023/06/08 08:05:18;;;;;;;14.80;8.52;;;;;;;17.14;100.00;101685.88;5153047;27;20047;-53
2023/06/08 08:07:46;;;;;;;18.85;8.65;;;;;;;17.16;100.00;101689.28;5153650;27;20129;-61
2023/06/08 08:10:14;;;;;;;16.10;7.30;;;;;;;17.23;100.00;101686.00;5155819;27;20050;-52
2023/06/08 08:12:43;;;;;;;15.68;7.85;;;;;;;17.24;100.00;101679.72;5151962;27;20424;-51
2023/06/08 08:15:12;;;;;;;16.25;7.55;;;;;;;17.31;100.00;101674.75;5153539;27;20042;-52
2023/06/08 08:17:41;;;;;;;16.00;8.50;;;;;;;17.29;100.00;101684.66;5153512;27;20050;-51
2023/06/08 08:20:10;;;;;;;20.33;7.55;;;;;;;17.42;100.00;101684.50;5152673;27;20516;-53
2023/06/08 08:22:39;;;;;;;14.13;7.07;;;;;;;17.45;100.00;101688.75;5156001;27;20082;-52
2023/06/08 08:25:08;;;;;;;14.88;7.28;;;;;;;17.51;100.00;101682.94;5155567;27;20039;-53
2023/06/08 08:27:37;;;;;;;12.75;7.72;;;;;;;17.52;100.00;101681.94;5152051;27;20068;-52
2023/06/08 08:30:06;;;;;;;16.85;7.75;;;;;;;17.62;100.00;101688.22;5153370;27;20062;-48
2023/06/08 08:32:36;;;;;;;15.52;7.45;;;;;;;17.66;100.00;101679.00;5154072;27;20058;-60
2023/06/08 08:35:05;;;;;;;14.20;6.45;;;;;;;17.68;100.00;101685.06;5155522;27;20066;-60
2023/06/08 08:37:35;;;;;;;14.20;6.75;;;;;;;17.69;100.00;101688.56;5156621;27;20065;-59
2023/06/08 08:40:06;;;;;;;12.52;6.38;;;;;;;17.75;100.00;101688.03;5155949;27;20070;-52
2023/06/08 08:42:42;;;;;;;12.45;6.20;;;;;;;17.91;100.00;101687.63;5156217;27;20046;-54
2023/06/08 08:45:14;;;;;;;13.85;6.68;;;;;;;17.96;100.00;101690.78;5135330;27;20051;-60
2023/06/08 08:47:44;;;;;;;14.55;6.63;;;;;;;18.03;100.00;101694.59;5153241;27;20103;-61
2023/06/08 08:50:16;;;;;;;11.38;5.93;;;;;;;18.05;100.00;101689.16;5155043;27;20509;-61
2023/06/08 08:52:46;;;;;;;12.00;6.00;;;;;;;17.93;100.00;101701.69;5153547;27;20761;-62
2023/06/08 08:55:14;;;;;;;15.40;6.40;;;;;;;17.96;100.00;101687.28;5153560;27;20043;-62
2023/06/08 08:58:02;;;;;;;14.63;6.18;;;;;;;18.01;100.00;101687.72;5155894;27;20121;-61
2023/06/08 09:00:32;;;;;;;14.48;6.45;;;;;;;17.95;100.00;101685.59;5155493;27;20062;-61
2023/06/08 09:03:01;;;;;;;10.52;5.90;;;;;;;17.98;100.00;101680.00;5155680;27;20095;-48
2023/06/08 09:05:30;;;;;;;11.43;5.93;;;;;;;18.08;100.00;101681.78;5155930;27;20039;-61
2023/06/08 09:07:58;;;;;;;17.17;6.72;;;;;;;18.17;100.00;101676.66;5155717;27;20051;-61
2023/06/08 09:10:27;;;;;;;13.10;6.88;;;;;;;18.34;100.00;101678.72;5155845;27;20053;-61
2023/06/08 09:12:56;;;;;;;14.43;6.20;;;;;;;18.61;100.00;101682.66;5152212;27;20095;-61
2023/06/08 09:15:27;;;;;;;12.95;6.55;;;;;;;18.78;100.00;101675.88;5152964;27;20047;-61
2023/06/08 09:17:56;;;;;;;15.57;7.30;;;;;;;19.05;98.31;101669.13;5152487;27;20054;-51
2023/06/08 09:20:31;;;;;;;16.05;8.00;;;;;;;19.17;94.52;101669.84;5152828;27;20051;-61
2023/06/08 09:22:59;;;;;;;14.73;7.43;;;;;;;19.34;95.15;101669.19;5155001;27;20081;-51
2023/06/08 09:25:38;;;;;;;14.52;6.88;;;;;;;19.25;96.17;101662.88;5154622;27;20046;-61
2023/06/08 09:28:24;;;;;;;15.52;7.40;;;;;;;19.32;96.62;101670.31;5151634;27;20508;-61
2023/06/08 09:30:55;;;;;;;14.50;6.22;;;;;;;19.41;95.28;101669.47;5152298;27;20241;-62
2023/06/08 09:33:25;;;;;;;13.13;6.63;;;;;;;19.46;94.21;101663.75;5153648;27;20103;-51
2023/06/08 09:36:15;;;;;;;14.13;7.32;;;;;;;19.62;95.66;101660.50;5136129;27;20058;-53
2023/06/08 09:38:44;;;;;;;15.60;8.00;;;;;;;19.62;93.31;101660.50;5154511;27;20055;-60
2023/06/08 09:41:17;;;;;;;17.63;7.53;;;;;;;19.70;93.69;101658.84;5151428;27;20050;-61
2023/06/08 09:43:47;;;;;;;13.65;7.10;;;;;;;19.95;93.47;101653.97;5151057;27;20543;-51
2023/06/08 09:46:34;;;;;;;15.48;7.10;;;;;;;20.27;90.79;101661.63;5150761;27;20049;-51
2023/06/08 09:49:04;;;;;;;15.27;8.05;;;;;;;20.55;89.82;101650.19;5152425;27;20381;-49
2023/06/08 09:51:36;;;;;;;14.07;7.15;;;;;;;20.72;90.56;101645.91;5154198;27;20034;-49
2023/06/08 09:54:05;;;;;;;12.38;7.03;;;;;;;20.87;89.77;101641.75;5133416;27;20051;-53
2023/06/08 09:56:38;;;;;;;14.88;6.97;;;;;;;21.20;89.84;101636.81;5131995;27;20046;-54
2023/06/08 09:59:09;;;;;;;13.48;7.18;;;;;;;21.57;87.44;101632.34;5151110;27;20507;-62
2023/06/08 10:01:42;;;;;;;14.02;6.55;;;;;;;21.73;85.59;101629.81;5151068;27;20074;-60
2023/06/08 10:04:21;;;;;;;11.23;7.28;;;;;;;22.00;83.71;101630.66;5150494;27;20054;-61
2023/06/08 10:06:54;;;;;;;11.93;6.97;;;;;;;22.23;83.21;101628.31;5151478;27;20049;-52
2023/06/08 10:09:28;;;;;;;13.95;7.22;;;;;;;22.51;82.21;101620.16;5135485;27;20115;-61
2023/06/08 10:12:01;;;;;;;13.65;7.43;;;;;;;22.64;81.49;101625.03;5153784;27;20054;-61
2023/06/08 10:14:30;;;;;;;14.48;7.30;;;;;;;22.99;79.11;101620.50;5150536;27;20043;-54
2023/06/08 10:16:59;;;;;;;13.43;7.63;;;;;;;23.07;76.93;101623.19;5151764;27;20039;-53
2023/06/08 10:19:27;;;;;;;13.73;6.70;;;;;;;23.12;78.62;101622.69;5153806;27;20053;-55
2023/06/08 10:21:58;;;;;;;15.65;7.45;;;;;;;23.27;78.06;101621.09;5151630;27;20046;-56
2023/06/08 10:24:29;;;;;;;13.70;7.35;;;;;;;23.55;76.93;101623.47;5151526;27;20546;-61
2023/06/08 10:27:11;;;;;;;14.80;6.80;;;;;;;23.91;77.06;101615.09;5154042;27;20042;-62
2023/06/08 10:29:39;;;;;;;16.45;6.78;;;;;;;24.20;72.81;101610.19;5135571;27;20051;-62
2023/06/08 10:32:10;;;;;;;12.77;7.10;;;;;;;24.29;71.10;101611.84;5151266;27;20488;-62
2023/06/08 10:34:40;;;;;;;13.02;6.63;;;;;;;24.66;69.92;101612.25;5150503;27;20041;-61
2023/06/08 10:37:28;;;;;;;12.50;7.07;;;;;;;24.86;68.16;101601.91;5133037;27;20073;-62
2023/06/08 10:39:58;;;;;;;10.95;6.60;;;;;;;24.88;69.01;101597.19;5153673;27;20134;-62
2023/06/08 10:42:27;;;;;;;15.38;6.53;;;;;;;25.24;68.67;101588.56;5153922;27;20047;-62
2023/06/08 10:44:58;;;;;;;11.52;6.78;;;;;;;25.58;67.68;101592.72;5153731;27;20421;-62
2023/06/08 10:47:28;;;;;;;12.43;6.60;;;;;;;25.56;65.57;101587.47;5150700;27;20065;-62
2023/06/08 10:49:59;;;;;;;11.93;6.15;;;;;;;25.78;66.10;101582.25;5150704;27;20047;-62
2023/06/08 10:52:29;;;;;;;13.75;6.53;;;;;;;25.94;65.31;101579.38;5150315;27;20051;-61
2023/06/08 10:55:08;;;;;;;12.13;6.15;;;;;;;26.21;63.93;101581.69;5150745;27;20043;-62
2023/06/08 10:57:41;;;;;;;11.50;5.97;;;;;;;26.39;61.81;101582.13;5149467;27;20096;-63
2023/06/08 11:00:43;;;;;;;12.90;6.72;;;;;;;26.11;62.14;101582.78;5153153;27;20047;-63
2023/06/08 11:03:13;;;;;;;10.63;6.10;;;;;;;26.44;62.13;101571.63;5154495;27;20043;-62
2023/06/08 11:05:44;;;;;;;11.23;5.63;;;;;;;26.61;60.56;101571.41;5154448;27;20215;-61
2023/06/08 11:08:17;;;;;;;11.32;6.45;;;;;;;26.74;59.16;101568.06;5155575;27;20068;-62
2023/06/08 11:10:51;;;;;;;10.85;6.63;;;;;;;26.38;59.69;101556.22;5156130;27;20053;-62
2023/06/08 11:13:19;;;;;;;11.82;6.20;;;;;;;26.62;60.07;101565.00;5154089;27;20453;-60
2023/06/08 11:15:48;;;;;;;14.50;6.18;;;;;;;26.65;60.59;101561.91;5155255;27;20055;-55
2023/06/08 11:18:19;;;;;;;12.38;6.43;;;;;;;26.73;59.15;101552.91;5155659;27;20532;-58
2023/06/08 11:20:48;;;;;;;12.38;6.32;;;;;;;26.87;59.44;101549.31;5157590;27;20043;-55
2023/06/08 11:23:17;;;;;;;10.07;5.82;;;;;;;26.82;58.80;101551.78;5138908;27;20065;-55